Terminal Aerodrome Forecast
Issued by NWS

Home | Current Version | Previous Version | Text Only | Print | Product List | Glossary Off
Versions: 1 2 3 4 5 6 7 8 9 10 11

000
FTUS43 KICT 102338
TAFHUT
TAF
KHUT 102338Z 1100/1124 27007KT P6SM FEW250
     FM111500 31013KT P6SM SCT250
     FM111700 33021G29KT P6SM SCT250=

USA.gov is the U.S. government's official web portal to all federal, state and local government web resources and services.